Etusivu
METAR-TAF:

METAR-TAF

Lentoasemat :

San Angelo Regional Airport (Mathis Field)

San Angelo, Texas, Yhdysvallat

Leveyspiiri: 31-21-05N, Pituuspiiri: 100-29-38W, korkeus merenpinnasta: 584 m

Tämänhetkinen sää

Tämä raportti tehtiin 24 minuuttia sitten, kello 04.51 UTC
Tuuli 6 kn lounaasta
Lämpötila 8°C
Kosteus 42%
Ilmanpaine 1026 hPa
Näkyvyys: 16.1 km
selkeää

METAR: KSJT 290451Z AUTO 23006KT 10SM CLR 08/M04 A3030 RMK AO2 SLP259 T00831039

Aika: 23:15 (05:15 UTC)

Sääennuste

Tämä raportti tehtiin 5 tuntia ja 50 minuuttia sitten, kello 23.25 UTC
Ennuste voimassa 29. päivästä klo 00 UTC - 29. päivään klo 24 UTC
Tuuli 6 kn etelästä
Näkyvyys: 10 km
Hajanaisia pilviä 25000 ft:n korkeudessa
From 29. päivästä klo 1600 UTC
Tuuli 16 kn etelästä puuskistuen 26 kn:hen
Näkyvyys: 10 km
Hajonneita pilviä 25000 ft:n korkeudessa

TAF: KSJT 282325Z 2900/2924 19006KT P6SM SCT250 FM291600 19016G26KT P6SM BKN250

Säähavainnot ja -ennusteet yli 4000 lentoasemalta (METAR- ja TAF-raportit).

Käytössä olevat sääasemat on merkitty karttaan keltaisilla ja punaisilla pisteillä.

Aseta hiiri pisteen päälle nähdäksesi sääaseman nimen.

Klikkaa sitten nähdäksesi säähavainnot ja -ennusteet.

Kartan vaihtaminen: klikkaa mustalla rastilla varustettuja vihreitä pisteitä, niin voit zoomata sisään; viivalla varustettua vihreää pistettä, niin voit zoomata ulos tai vihreitä nuolia, niin pääset viereisille kartoille.


METAR-TAF: